Orange City, Florida
Current Conditions -  °F | °C
As of 11:53 PM on Monday 22 Dec 2014 (Local Time) from KSFB Reporting Station
Scattered Clouds Scattered Clouds  
Wind Chill: 69°   Ceiling: Unl
Heat Index: 69°   Visibility: 10mi
Dew Point: 66°   Wind: 8mph
Humidity: 90%   Direction: 180°S
Pressure: 29.94"   Gusts: NA
Location:  28.95°N, 81.3°W
Report Text: KSFB 230453Z AUTO 18007KT 10SM SCT095 21/19 A2994 RMK AO2 SLP138 T02060189 402560178
Loading
Personal Weather Stations






























Interactive Weather Map New forecast layout! Learn more

10-Day Weather Forecast

Advertisements
Track Severe Weather on mobile